Meeker, Colorado
Current Conditions -  °F | °C
As of 9:21 AM on Friday 19 Dec 2014 (Local Time) from KEEO Reporting Station
Overcast Overcast  
Wind Chill: 22°   Ceiling: 800
Heat Index: 22°   Visibility: 9mi
Dew Point: 20°   Wind: 0mph
Humidity: 92%   Direction: NA
Pressure: 30.25"   Gusts: NA
Location:  40.04°N, 107.91°W
Report Text: KEEO 191621Z AUTO 00000KT 9SM OVC008 M06/M07 A3025 RMK AO2 SNE01 P0000 T10561067
Loading
Personal Weather Stations






























Interactive Weather Map New forecast layout! Learn more

10-Day Weather Forecast

Advertisements
Track Severe Weather on mobile